createdAt,value
2023-05-24T00:00:33.814Z,16.01
2023-05-24T00:03:22.047Z,15.99
2023-05-24T00:05:50.469Z,15.97
2023-05-24T00:08:18.474Z,15.95
2023-05-24T00:10:46.878Z,15.95
2023-05-24T00:13:15.612Z,15.96
2023-05-24T00:15:43.586Z,15.93
2023-05-24T00:18:11.577Z,15.95
2023-05-24T00:20:40.118Z,15.89
2023-05-24T00:23:08.289Z,15.88
2023-05-24T00:25:36.346Z,15.86
2023-05-24T00:28:04.290Z,15.82
2023-05-24T00:30:32.164Z,15.85
2023-05-24T00:32:59.606Z,15.83
2023-05-24T00:35:27.801Z,15.79
2023-05-24T00:37:55.596Z,15.78
2023-05-24T00:40:23.497Z,15.71
2023-05-24T00:42:51.234Z,15.69
2023-05-24T00:45:19.838Z,15.67
2023-05-24T00:47:47.900Z,15.60
2023-05-24T00:50:17.402Z,15.51
2023-05-24T00:52:45.878Z,15.42
2023-05-24T00:55:14.555Z,15.38
2023-05-24T00:57:42.476Z,15.40
2023-05-24T01:00:11.997Z,15.35
2023-05-24T01:02:40.924Z,15.35
2023-05-24T01:05:13.819Z,15.33
2023-05-24T01:08:01.215Z,15.21
2023-05-24T01:10:59.019Z,15.18
2023-05-24T01:13:47.855Z,15.13
2023-05-24T01:16:26.339Z,15.05
2023-05-24T01:19:05.023Z,14.95
2023-05-24T01:21:48.608Z,14.93
2023-05-24T01:24:54.079Z,14.85
2023-05-24T01:27:23.687Z,14.78
2023-05-24T01:29:53.721Z,14.75
2023-05-24T01:32:22.849Z,14.71
2023-05-24T01:34:50.809Z,14.64
2023-05-24T01:37:18.823Z,14.58
2023-05-24T01:39:47.230Z,14.52
2023-05-24T01:43:11.233Z,14.49
2023-05-24T01:45:45.747Z,14.48
2023-05-24T01:48:20.517Z,14.44
2023-05-24T01:51:03.813Z,14.42
2023-05-24T01:53:38.570Z,14.34
2023-05-24T01:56:06.933Z,14.34
2023-05-24T01:58:36.752Z,14.34
2023-05-24T02:01:05.890Z,14.31
2023-05-24T02:03:34.270Z,14.19
2023-05-24T02:06:03.513Z,14.27
2023-05-24T02:08:31.417Z,14.27
2023-05-24T02:10:59.174Z,14.24
2023-05-24T02:13:27.373Z,14.17
2023-05-24T02:15:55.349Z,14.13
2023-05-24T02:18:23.202Z,14.12
2023-05-24T02:20:50.928Z,14.04
2023-05-24T02:23:19.614Z,14.11
2023-05-24T02:25:47.551Z,14.07
2023-05-24T02:28:16.009Z,14.05
2023-05-24T02:30:45.211Z,14.06
2023-05-24T02:33:13.503Z,14.04
2023-05-24T02:35:41.657Z,14.06
2023-05-24T02:38:10.226Z,14.01
2023-05-24T02:40:38.049Z,14.08
2023-05-24T02:43:06.467Z,14.15
2023-05-24T02:45:34.412Z,14.19
2023-05-24T02:48:02.931Z,14.19
2023-05-24T02:50:30.721Z,14.22
2023-05-24T02:52:59.209Z,14.21
2023-05-24T02:55:27.113Z,14.22
2023-05-24T02:57:55.767Z,14.22
2023-05-24T03:00:25.433Z,14.18
2023-05-24T03:03:00.983Z,14.22
2023-05-24T03:05:28.912Z,14.25
2023-05-24T03:07:57.357Z,14.24
2023-05-24T03:10:25.179Z,14.30
2023-05-24T03:12:53.050Z,14.33
2023-05-24T03:15:21.241Z,14.33
2023-05-24T03:17:49.705Z,14.31
2023-05-24T03:20:18.042Z,14.34
2023-05-24T03:22:47.117Z,14.32
2023-05-24T03:25:14.945Z,14.34
2023-05-24T03:27:43.477Z,14.36
2023-05-24T03:30:12.123Z,14.43
2023-05-24T03:32:51.827Z,14.45
2023-05-24T03:35:20.637Z,14.47
2023-05-24T03:37:50.110Z,14.62
2023-05-24T03:40:18.765Z,14.68
2023-05-24T03:42:57.261Z,14.75
2023-05-24T03:45:41.800Z,14.78
2023-05-24T03:48:09.872Z,14.80
2023-05-24T03:50:37.564Z,14.79
2023-05-24T03:53:05.898Z,14.91
2023-05-24T03:55:33.635Z,14.98
2023-05-24T03:58:02.301Z,15.03
2023-05-24T04:00:30.292Z,15.12
2023-05-24T04:02:58.699Z,15.17
2023-05-24T04:05:30.224Z,15.31
2023-05-24T04:07:58.810Z,15.35
2023-05-24T04:10:26.780Z,15.43
2023-05-24T04:12:57.296Z,15.38
2023-05-24T04:15:25.304Z,15.41
2023-05-24T04:17:55.366Z,15.52
2023-05-24T04:20:28.185Z,15.58
2023-05-24T04:22:56.507Z,15.63
2023-05-24T04:25:24.804Z,15.66
2023-05-24T04:27:52.718Z,15.66
2023-05-24T04:30:21.631Z,15.70
2023-05-24T04:32:52.985Z,15.81
2023-05-24T04:35:21.596Z,15.93
2023-05-24T04:37:50.551Z,16.01
2023-05-24T04:40:21.312Z,16.12
2023-05-24T04:42:51.245Z,16.20
2023-05-24T04:45:19.236Z,16.22
2023-05-24T04:47:47.583Z,16.28
2023-05-24T04:50:15.253Z,16.37
2023-05-24T04:52:43.316Z,16.44
2023-05-24T04:55:10.900Z,16.42
2023-05-24T04:57:39.287Z,16.56
2023-05-24T05:00:08.233Z,16.58
2023-05-24T05:02:36.258Z,16.68
2023-05-24T05:05:04.567Z,16.81
2023-05-24T05:07:32.528Z,16.96
2023-05-24T05:10:00.320Z,16.97
2023-05-24T05:12:28.531Z,17.00
2023-05-24T05:14:56.583Z,17.04
2023-05-24T05:17:24.473Z,17.15
2023-05-24T05:19:52.212Z,17.30
2023-05-24T05:22:20.784Z,17.43
2023-05-24T05:24:48.629Z,17.45
2023-05-24T05:27:16.677Z,17.51
2023-05-24T05:29:44.532Z,17.43
2023-05-24T05:32:12.811Z,17.50
2023-05-24T05:34:41.268Z,17.45
2023-05-24T05:37:09.756Z,17.51
2023-05-24T05:39:37.374Z,17.52
2023-05-24T05:42:06.105Z,17.77
2023-05-24T05:44:33.933Z,17.93
2023-05-24T05:47:03.997Z,18.34
2023-05-24T05:49:33.265Z,18.70
2023-05-24T05:52:01.936Z,18.93
2023-05-24T05:54:31.544Z,19.12
2023-05-24T05:57:01.692Z,19.14
2023-05-24T05:59:29.936Z,19.15
2023-05-24T06:01:58.260Z,19.01
2023-05-24T06:04:26.070Z,19.01
2023-05-24T06:06:54.423Z,18.95
2023-05-24T06:09:22.288Z,18.88
2023-05-24T06:11:50.646Z,18.77
2023-05-24T06:14:20.331Z,18.99
2023-05-24T06:16:48.984Z,19.05
2023-05-24T06:19:17.381Z,18.97
2023-05-24T06:21:49.013Z,18.88
2023-05-24T06:24:21.745Z,18.96
2023-05-24T06:26:51.964Z,19.15
2023-05-24T06:29:21.298Z,19.45
2023-05-24T06:31:50.622Z,19.80
2023-05-24T06:34:21.760Z,20.25
2023-05-24T06:36:51.814Z,20.57
2023-05-24T06:39:19.901Z,20.82
2023-05-24T06:41:51.404Z,20.97
2023-05-24T06:44:32.193Z,21.08
2023-05-24T06:47:04.824Z,21.24
2023-05-24T06:49:33.383Z,21.53
2023-05-24T06:52:02.092Z,21.43
2023-05-24T06:54:30.000Z,21.37
2023-05-24T06:56:59.455Z,21.52
2023-05-24T06:59:27.500Z,21.42
2023-05-24T07:02:00.073Z,21.53
2023-05-24T07:04:30.061Z,21.73
2023-05-24T07:06:58.668Z,21.74
2023-05-24T07:09:27.088Z,21.93
2023-05-24T07:11:55.604Z,22.37
2023-05-24T07:14:24.476Z,22.83
2023-05-24T07:16:52.897Z,23.19
2023-05-24T07:19:22.226Z,23.10
2023-05-24T07:21:50.752Z,22.94
2023-05-24T07:24:18.564Z,23.12
2023-05-24T07:26:47.154Z,23.17
2023-05-24T07:29:15.214Z,22.97
2023-05-24T07:31:43.763Z,22.89
2023-05-24T07:34:11.757Z,23.13
2023-05-24T07:36:41.595Z,23.68
2023-05-24T07:39:16.132Z,23.58
2023-05-24T07:41:45.186Z,23.52
2023-05-24T07:44:13.722Z,23.37
2023-05-24T07:46:42.236Z,23.14
2023-05-24T07:49:10.112Z,23.23
2023-05-24T07:51:39.599Z,23.51
2023-05-24T07:54:07.463Z,23.77
2023-05-24T07:56:36.817Z,24.16
2023-05-24T07:59:05.049Z,24.35
2023-05-24T08:01:38.246Z,24.46
2023-05-24T08:04:06.254Z,24.76
2023-05-24T08:06:35.157Z,24.71
2023-05-24T08:09:04.697Z,24.65
2023-05-24T08:11:33.249Z,24.65
2023-05-24T08:14:01.922Z,24.58
2023-05-24T08:16:32.462Z,24.79
2023-05-24T08:19:00.352Z,24.83
2023-05-24T08:21:29.413Z,24.86
2023-05-24T08:23:57.810Z,25.04
2023-05-24T08:26:26.764Z,25.02
2023-05-24T08:28:55.399Z,24.93
2023-05-24T08:31:24.194Z,24.69
2023-05-24T08:33:53.057Z,24.39
2023-05-24T08:36:20.896Z,24.34
2023-05-24T08:38:48.738Z,24.21
2023-05-24T08:41:16.891Z,24.07
2023-05-24T08:43:45.103Z,24.36
2023-05-24T08:46:15.196Z,24.70
2023-05-24T08:48:47.723Z,24.78
2023-05-24T08:51:16.931Z,24.65
2023-05-24T08:53:49.222Z,24.69
2023-05-24T08:56:19.022Z,24.51
2023-05-24T08:58:47.709Z,24.50
2023-05-24T09:01:17.505Z,24.35
2023-05-24T09:03:49.037Z,24.26
2023-05-24T09:06:18.796Z,24.19
2023-05-24T09:08:46.763Z,24.27
2023-05-24T09:11:16.696Z,24.51
2023-05-24T09:13:48.501Z,24.77
2023-05-24T09:16:17.423Z,24.75
2023-05-24T09:18:45.232Z,24.94
2023-05-24T09:21:14.160Z,25.16
2023-05-24T09:23:42.540Z,25.33
2023-05-24T09:26:11.599Z,25.47
2023-05-24T09:28:41.948Z,25.61
2023-05-24T09:31:10.290Z,25.70
2023-05-24T09:33:39.655Z,25.79
2023-05-24T09:36:08.887Z,26.05
2023-05-24T09:38:37.373Z,26.15
2023-05-24T09:41:08.619Z,25.99
2023-05-24T09:43:48.922Z,26.11
2023-05-24T09:46:19.712Z,26.09
2023-05-24T09:49:04.218Z,25.71
2023-05-24T09:51:33.180Z,25.30
2023-05-24T09:54:02.786Z,25.07
2023-05-24T09:56:33.830Z,24.82
2023-05-24T09:59:10.856Z,24.48
2023-05-24T10:01:39.591Z,24.35
2023-05-24T10:04:10.288Z,24.31
2023-05-24T10:06:40.243Z,24.18
2023-05-24T10:09:09.872Z,24.26
2023-05-24T10:11:38.142Z,24.22
2023-05-24T10:14:07.961Z,24.22
2023-05-24T10:16:38.453Z,24.24
2023-05-24T10:19:07.581Z,24.27
2023-05-24T10:21:39.346Z,24.23
2023-05-24T10:24:09.188Z,24.34
2023-05-24T10:26:38.812Z,24.29
2023-05-24T10:29:10.075Z,24.38
2023-05-24T10:31:39.881Z,24.48
2023-05-24T10:34:09.226Z,24.57
2023-05-24T10:36:40.613Z,24.50
2023-05-24T10:39:12.276Z,24.56
2023-05-24T10:41:42.418Z,24.31
2023-05-24T10:44:14.816Z,24.21
2023-05-24T10:47:04.091Z,24.21
2023-05-24T10:49:32.358Z,24.13
2023-05-24T10:52:09.304Z,23.98
2023-05-24T10:54:41.141Z,23.99
2023-05-24T10:57:13.429Z,24.08
2023-05-24T10:59:44.776Z,24.02
2023-05-24T11:02:17.039Z,24.00
2023-05-24T11:04:49.760Z,23.94
2023-05-24T11:07:19.633Z,24.03
2023-05-24T11:09:57.287Z,23.98
2023-05-24T11:12:32.832Z,23.94
2023-05-24T11:15:03.409Z,24.00
2023-05-24T11:17:32.154Z,23.99
2023-05-24T11:20:05.406Z,24.18
2023-05-24T11:22:34.023Z,24.21
2023-05-24T11:25:06.245Z,24.13
2023-05-24T11:27:35.714Z,24.01
2023-05-24T11:30:04.588Z,24.16
2023-05-24T11:32:33.903Z,24.10
2023-05-24T11:35:02.113Z,24.00
2023-05-24T11:37:42.546Z,24.02
2023-05-24T11:40:15.184Z,24.05
2023-05-24T11:42:44.657Z,24.07
2023-05-24T11:45:13.912Z,24.02
2023-05-24T11:47:42.167Z,24.19
2023-05-24T11:50:10.817Z,24.23
2023-05-24T11:52:41.971Z,24.28
2023-05-24T11:55:16.405Z,24.38
2023-05-24T11:57:50.315Z,24.42
2023-05-24T12:00:25.606Z,24.50
2023-05-24T12:02:57.439Z,24.68
2023-05-24T12:05:25.502Z,24.57
2023-05-24T12:08:06.602Z,24.73
2023-05-24T12:10:39.147Z,24.83
2023-05-24T12:13:13.838Z,24.91
2023-05-24T12:15:41.755Z,24.88
2023-05-24T12:18:23.448Z,25.09
2023-05-24T12:20:51.935Z,25.09
2023-05-24T12:23:22.055Z,25.02
2023-05-24T12:25:50.401Z,24.82
2023-05-24T12:28:22.138Z,24.77
2023-05-24T12:30:50.566Z,24.83
2023-05-24T12:33:21.940Z,24.60
2023-05-24T12:35:50.324Z,24.54
2023-05-24T12:38:25.908Z,24.58
2023-05-24T12:43:28.057Z,24.59
2023-05-24T12:45:56.109Z,24.71
2023-05-24T12:48:24.520Z,24.77
2023-05-24T12:50:52.474Z,24.93
2023-05-24T12:53:24.241Z,24.84
2023-05-24T12:55:55.972Z,24.62
2023-05-24T12:58:24.300Z,24.60
2023-05-24T13:00:52.373Z,24.74
2023-05-24T13:03:20.500Z,24.74
2023-05-24T13:05:52.004Z,24.83
2023-05-24T13:08:22.328Z,24.78
2023-05-24T13:10:51.159Z,24.90
2023-05-24T13:13:19.728Z,24.90
2023-05-24T13:15:47.510Z,24.68
2023-05-24T13:18:16.385Z,24.70
2023-05-24T13:20:44.502Z,24.60
2023-05-24T13:23:13.551Z,24.57
2023-05-24T13:25:41.528Z,24.64
2023-05-24T13:28:10.170Z,24.64
2023-05-24T13:30:38.891Z,24.63
2023-05-24T13:33:07.407Z,24.56
2023-05-24T13:35:35.309Z,24.58
2023-05-24T13:38:04.092Z,24.61
2023-05-24T13:40:32.201Z,24.76
2023-05-24T13:42:59.772Z,24.95
2023-05-24T13:45:28.084Z,24.99
2023-05-24T13:48:03.922Z,24.99
2023-05-24T13:50:34.288Z,25.04
2023-05-24T13:53:04.141Z,25.17
2023-05-24T13:55:34.701Z,25.07
2023-05-24T13:58:05.208Z,25.29
2023-05-24T14:00:33.573Z,25.45
2023-05-24T14:03:02.278Z,25.53
2023-05-24T14:05:31.236Z,25.65
2023-05-24T14:08:06.811Z,25.66
2023-05-24T14:10:37.294Z,25.76
2023-05-24T14:15:38.169Z,25.97
2023-05-24T14:18:08.711Z,26.17
2023-05-24T14:20:38.148Z,26.05
2023-05-24T14:23:10.400Z,26.07
2023-05-24T14:25:38.263Z,26.05
2023-05-24T14:28:08.945Z,25.97
2023-05-24T14:30:38.201Z,25.70
2023-05-24T14:33:08.720Z,25.35
2023-05-24T14:35:40.254Z,25.13
2023-05-24T14:38:10.801Z,24.87
2023-05-24T14:40:40.409Z,24.56
2023-05-24T14:43:11.108Z,24.12
2023-05-24T14:45:44.072Z,23.67
2023-05-24T14:48:13.169Z,23.18
2023-05-24T14:50:42.166Z,22.75
2023-05-24T14:53:12.988Z,22.31
2023-05-24T14:55:43.489Z,22.12
2023-05-24T14:58:13.258Z,21.92
2023-05-24T15:00:43.038Z,21.72
2023-05-24T15:03:13.091Z,21.51
2023-05-24T15:05:42.688Z,21.45
2023-05-24T15:08:11.874Z,21.47
2023-05-24T15:10:39.859Z,21.39
2023-05-24T15:13:08.553Z,21.39
2023-05-24T15:15:36.895Z,21.34
2023-05-24T15:18:05.134Z,21.16
2023-05-24T15:20:35.657Z,21.05
2023-05-24T15:23:04.721Z,20.95
2023-05-24T15:25:32.718Z,20.88
2023-05-24T15:28:01.821Z,20.80
2023-05-24T15:30:30.297Z,20.71
2023-05-24T15:32:58.547Z,20.68
2023-05-24T15:35:27.088Z,20.72
2023-05-24T15:37:55.713Z,20.66
2023-05-24T15:40:24.941Z,20.65
2023-05-24T15:42:53.367Z,20.61
2023-05-24T15:45:21.895Z,20.67
2023-05-24T15:47:50.273Z,20.37
2023-05-24T15:50:23.611Z,20.12
2023-05-24T15:52:54.103Z,20.10
2023-05-24T15:55:22.344Z,20.07
2023-05-24T15:57:50.636Z,20.08
2023-05-24T16:00:18.802Z,19.92
2023-05-24T16:02:47.606Z,19.82
2023-05-24T16:05:16.334Z,19.82
2023-05-24T16:07:45.126Z,19.82
2023-05-24T16:10:13.402Z,19.76
2023-05-24T16:12:42.353Z,19.67
2023-05-24T16:15:11.007Z,19.60
2023-05-24T16:17:39.545Z,19.49
2023-05-24T16:20:08.088Z,19.39
2023-05-24T16:22:37.414Z,19.35
2023-05-24T16:25:06.090Z,19.32
2023-05-24T16:27:34.681Z,19.34
2023-05-24T16:30:03.288Z,19.27
2023-05-24T16:32:31.563Z,19.24
2023-05-24T16:34:59.492Z,19.03
2023-05-24T16:37:27.725Z,18.94
2023-05-24T16:39:56.116Z,18.89
2023-05-24T16:42:24.216Z,18.85
2023-05-24T16:44:52.030Z,18.68
2023-05-24T16:47:20.329Z,18.24
2023-05-24T16:49:48.270Z,18.11
2023-05-24T16:52:16.746Z,17.98
2023-05-24T16:54:44.868Z,17.91
2023-05-24T16:57:13.406Z,17.96
2023-05-24T16:59:42.789Z,17.95
2023-05-24T17:02:10.857Z,17.94
2023-05-24T17:04:38.865Z,17.91
2023-05-24T17:07:07.198Z,17.91
2023-05-24T17:09:35.220Z,17.94
2023-05-24T17:12:04.002Z,17.92
2023-05-24T17:14:32.364Z,17.98
2023-05-24T17:17:00.871Z,17.97
2023-05-24T17:19:28.836Z,18.05
2023-05-24T17:21:57.584Z,17.97
2023-05-24T17:24:28.275Z,18.05
2023-05-24T17:26:57.072Z,18.03
2023-05-24T17:29:26.855Z,18.08
2023-05-24T17:31:55.566Z,18.07
2023-05-24T17:34:23.590Z,18.05
2023-05-24T17:36:52.000Z,18.10
2023-05-24T17:39:21.670Z,18.01
2023-05-24T17:41:49.965Z,18.02
2023-05-24T17:44:17.455Z,18.03
2023-05-24T17:46:45.981Z,18.02
2023-05-24T17:49:14.656Z,18.04
2023-05-24T17:51:43.356Z,18.07
2023-05-24T17:54:11.410Z,18.01
2023-05-24T17:56:39.862Z,17.98
2023-05-24T17:59:07.886Z,17.99
2023-05-24T18:01:36.692Z,18.00
2023-05-24T18:04:06.223Z,17.97
2023-05-24T18:06:37.668Z,17.97
2023-05-24T18:09:05.527Z,17.90
2023-05-24T18:11:33.705Z,17.86
2023-05-24T18:14:03.827Z,17.81
2023-05-24T18:16:32.190Z,17.83
2023-05-24T18:18:59.900Z,17.85
2023-05-24T18:21:28.548Z,17.79
2023-05-24T18:23:56.442Z,17.76
2023-05-24T18:26:24.747Z,17.72
2023-05-24T18:28:52.771Z,17.63
2023-05-24T18:31:22.178Z,17.57
2023-05-24T18:33:50.658Z,17.58
2023-05-24T18:36:19.149Z,17.55
2023-05-24T18:38:47.604Z,17.51
2023-05-24T18:41:16.900Z,17.44
2023-05-24T18:43:45.535Z,17.37
2023-05-24T18:46:15.446Z,17.31
2023-05-24T18:48:44.082Z,17.26
2023-05-24T18:51:12.503Z,17.23
2023-05-24T18:53:40.905Z,17.18
2023-05-24T18:56:09.289Z,17.19
2023-05-24T18:58:37.461Z,17.19
2023-05-24T19:01:06.078Z,17.13
2023-05-24T19:03:34.093Z,17.08
2023-05-24T19:06:02.366Z,17.13
2023-05-24T19:08:30.117Z,17.06
2023-05-24T19:10:58.742Z,17.04
2023-05-24T19:13:27.902Z,16.98
2023-05-24T19:15:57.057Z,16.97
2023-05-24T19:18:24.915Z,16.94
2023-05-24T19:20:53.710Z,16.87
2023-05-24T19:23:21.590Z,16.84
2023-05-24T19:25:50.883Z,16.80
2023-05-24T19:28:19.090Z,16.75
2023-05-24T19:30:47.310Z,16.68
2023-05-24T19:33:15.329Z,16.68
2023-05-24T19:35:44.454Z,16.57
2023-05-24T19:38:12.654Z,16.55
2023-05-24T19:40:41.123Z,16.48
2023-05-24T19:43:09.082Z,16.46
2023-05-24T19:45:37.593Z,16.43
2023-05-24T19:48:07.307Z,16.44
2023-05-24T19:50:36.563Z,16.41
2023-05-24T19:53:04.673Z,16.38
2023-05-24T19:55:33.159Z,16.38
2023-05-24T19:58:00.970Z,16.30
2023-05-24T20:00:29.302Z,16.24
2023-05-24T20:02:57.577Z,16.22
2023-05-24T20:05:26.289Z,16.13
2023-05-24T20:07:54.376Z,16.01
2023-05-24T20:10:23.286Z,16.13
2023-05-24T20:12:51.313Z,16.03
2023-05-24T20:15:19.551Z,15.99
2023-05-24T20:17:48.927Z,15.97
2023-05-24T20:20:17.645Z,15.90
2023-05-24T20:22:45.630Z,15.90
2023-05-24T20:25:14.362Z,15.87
2023-05-24T20:27:42.797Z,15.84
2023-05-24T20:30:12.167Z,15.84
2023-05-24T20:32:40.195Z,15.77
2023-05-24T20:35:09.781Z,15.76
2023-05-24T20:37:38.256Z,15.78
2023-05-24T20:40:07.840Z,15.71
2023-05-24T20:42:35.890Z,15.67
2023-05-24T20:45:04.675Z,15.68
2023-05-24T20:47:32.952Z,15.59
2023-05-24T20:50:01.376Z,15.61
2023-05-24T20:52:29.575Z,15.56
2023-05-24T20:54:57.918Z,15.49
2023-05-24T20:57:26.118Z,15.54
2023-05-24T20:59:54.562Z,15.53
2023-05-24T21:02:22.916Z,15.52
2023-05-24T21:04:51.722Z,15.49
2023-05-24T21:07:19.639Z,15.46
2023-05-24T21:09:47.603Z,15.50
2023-05-24T21:12:16.032Z,15.46
2023-05-24T21:14:44.988Z,15.44
2023-05-24T21:17:12.815Z,15.44
2023-05-24T21:19:42.047Z,15.42
2023-05-24T21:22:10.237Z,15.38
2023-05-24T21:24:38.689Z,15.34
2023-05-24T21:27:08.239Z,15.36
2023-05-24T21:29:38.694Z,15.35
2023-05-24T21:32:06.662Z,15.41
2023-05-24T21:34:36.254Z,15.38
2023-05-24T21:37:05.259Z,15.34
2023-05-24T21:39:33.658Z,15.31
2023-05-24T21:42:02.329Z,15.33
2023-05-24T21:44:30.893Z,15.23
2023-05-24T21:46:58.895Z,15.26
2023-05-24T21:49:27.795Z,15.28
2023-05-24T21:51:55.955Z,15.24
2023-05-24T21:54:24.206Z,15.21
2023-05-24T21:56:51.888Z,15.08
2023-05-24T21:59:21.579Z,15.07
2023-05-24T22:01:49.933Z,15.13
2023-05-24T22:04:18.327Z,15.02
2023-05-24T22:06:46.602Z,15.04
2023-05-24T22:09:15.411Z,15.03
2023-05-24T22:11:43.784Z,14.94
2023-05-24T22:14:12.577Z,14.90
2023-05-24T22:16:40.603Z,14.86
2023-05-24T22:19:16.929Z,14.95
2023-05-24T22:21:52.610Z,14.90
2023-05-24T22:24:21.442Z,14.83
2023-05-24T22:26:50.097Z,14.73
2023-05-24T22:29:20.520Z,14.71
2023-05-24T22:31:48.495Z,14.66
2023-05-24T22:34:26.991Z,14.67
2023-05-24T22:36:55.715Z,14.67
2023-05-24T22:39:24.670Z,14.62
2023-05-24T22:41:53.131Z,14.57
2023-05-24T22:44:21.744Z,14.49
2023-05-24T22:46:50.288Z,14.44
2023-05-24T22:49:21.188Z,14.29
2023-05-24T22:51:51.140Z,14.29
2023-05-24T22:54:20.420Z,14.26
2023-05-24T22:56:48.270Z,14.23
2023-05-24T22:59:16.513Z,14.20
2023-05-24T23:01:45.521Z,14.09
2023-05-24T23:04:21.205Z,14.05
2023-05-24T23:06:53.155Z,14.01
2023-05-24T23:09:42.051Z,13.97
2023-05-24T23:12:11.869Z,13.93
2023-05-24T23:14:42.427Z,13.89
2023-05-24T23:17:13.775Z,13.80
2023-05-24T23:19:43.618Z,13.71
2023-05-24T23:22:24.135Z,13.70
2023-05-24T23:24:53.059Z,13.63
2023-05-24T23:27:21.666Z,13.59
2023-05-24T23:29:50.288Z,13.53
2023-05-24T23:32:18.147Z,13.48
2023-05-24T23:34:46.698Z,13.39
2023-05-24T23:37:14.544Z,13.40
2023-05-24T23:39:43.088Z,13.34
2023-05-24T23:42:11.101Z,13.27
2023-05-24T23:44:39.555Z,13.22
2023-05-24T23:47:08.063Z,13.20
2023-05-24T23:49:36.921Z,13.09
2023-05-24T23:52:04.992Z,13.09
2023-05-24T23:54:33.287Z,12.97
2023-05-24T23:57:01.222Z,13.01
2023-05-24T23:59:29.687Z,12.90
